sensor_id;sensor_type;location;lat;lon;timestamp;pressure;altitude;pressure_sealevel;temperature;humidity
4469;BME280;2247;42.666;23.292;2023-02-28T00:01:29;94807.66;;;10.65;72.54
4469;BME280;2247;42.666;23.292;2023-02-28T00:03:57;94824.28;;;10.61;72.97
4469;BME280;2247;42.666;23.292;2023-02-28T00:06:24;94819.78;;;10.61;73.24
4469;BME280;2247;42.666;23.292;2023-02-28T00:08:53;94824.03;;;10.62;73.15
4469;BME280;2247;42.666;23.292;2023-02-28T00:11:19;94831.94;;;10.68;72.92
4469;BME280;2247;42.666;23.292;2023-02-28T00:13:47;94810.34;;;10.71;72.84
4469;BME280;2247;42.666;23.292;2023-02-28T00:16:16;94818.50;;;10.79;72.41
4469;BME280;2247;42.666;23.292;2023-02-28T00:18:43;94828.81;;;10.96;72.16
4469;BME280;2247;42.666;23.292;2023-02-28T00:21:09;94834.91;;;10.96;71.50
4469;BME280;2247;42.666;23.292;2023-02-28T00:23:37;94837.78;;;10.85;71.70
4469;BME280;2247;42.666;23.292;2023-02-28T00:26:05;94841.97;;;10.81;72.24
4469;BME280;2247;42.666;23.292;2023-02-28T00:28:32;94846.50;;;10.90;71.71
4469;BME280;2247;42.666;23.292;2023-02-28T00:30:59;94840.41;;;10.95;71.75
4469;BME280;2247;42.666;23.292;2023-02-28T00:33:26;94844.13;;;11.04;70.96
4469;BME280;2247;42.666;23.292;2023-02-28T00:36:02;94843.88;;;11.16;70.38
4469;BME280;2247;42.666;23.292;2023-02-28T00:38:29;94837.31;;;11.33;69.93
4469;BME280;2247;42.666;23.292;2023-02-28T00:40:56;94838.34;;;11.42;69.49
4469;BME280;2247;42.666;23.292;2023-02-28T00:43:25;94842.03;;;11.52;69.47
4469;BME280;2247;42.666;23.292;2023-02-28T00:45:52;94821.19;;;11.45;69.13
4469;BME280;2247;42.666;23.292;2023-02-28T00:48:21;94828.03;;;11.56;69.06
4469;BME280;2247;42.666;23.292;2023-02-28T00:50:49;94838.34;;;11.42;69.65
4469;BME280;2247;42.666;23.292;2023-02-28T00:53:16;94833.84;;;11.58;69.60
4469;BME280;2247;42.666;23.292;2023-02-28T00:55:43;94829.63;;;11.77;68.48
4469;BME280;2247;42.666;23.292;2023-02-28T00:58:11;94836.75;;;11.57;69.47
4469;BME280;2247;42.666;23.292;2023-02-28T01:00:39;94823.53;;;11.72;69.17
4469;BME280;2247;42.666;23.292;2023-02-28T01:03:06;94832.53;;;11.76;68.64
4469;BME280;2247;42.666;23.292;2023-02-28T01:05:33;94832.03;;;11.74;68.74
4469;BME280;2247;42.666;23.292;2023-02-28T01:08:00;94835.69;;;11.63;68.80
4469;BME280;2247;42.666;23.292;2023-02-28T01:10:28;94833.06;;;11.53;69.17
4469;BME280;2247;42.666;23.292;2023-02-28T01:12:57;94829.63;;;11.57;68.68
4469;BME280;2247;42.666;23.292;2023-02-28T01:15:23;94833.59;;;11.60;69.37
4469;BME280;2247;42.666;23.292;2023-02-28T01:17:52;94825.69;;;11.55;69.62
4469;BME280;2247;42.666;23.292;2023-02-28T01:20:19;94824.38;;;11.52;69.12
4469;BME280;2247;42.666;23.292;2023-02-28T01:22:46;94829.09;;;11.50;69.70
4469;BME280;2247;42.666;23.292;2023-02-28T01:25:13;94826.69;;;11.69;69.26
4469;BME280;2247;42.666;23.292;2023-02-28T01:27:40;94817.78;;;11.75;68.90
4469;BME280;2247;42.666;23.292;2023-02-28T01:30:09;94818.81;;;11.89;68.36
4469;BME280;2247;42.666;23.292;2023-02-28T01:32:36;94819.88;;;11.58;69.64
4469;BME280;2247;42.666;23.292;2023-02-28T01:35:05;94814.06;;;11.61;69.23
4469;BME280;2247;42.666;23.292;2023-02-28T01:37:32;94816.97;;;11.39;69.97
4469;BME280;2247;42.666;23.292;2023-02-28T01:39:59;94824.09;;;11.49;69.49
4469;BME280;2247;42.666;23.292;2023-02-28T01:42:25;94836.25;;;11.39;69.99
4469;BME280;2247;42.666;23.292;2023-02-28T01:45:03;94825.69;;;11.60;69.09
4469;BME280;2247;42.666;23.292;2023-02-28T01:47:33;94838.88;;;11.34;70.08
4469;BME280;2247;42.666;23.292;2023-02-28T01:50:06;94835.97;;;11.26;70.13
4469;BME280;2247;42.666;23.292;2023-02-28T01:52:34;94828.59;;;11.23;70.36
4469;BME280;2247;42.666;23.292;2023-02-28T01:55:03;94833.84;;;11.23;69.38
4469;BME280;2247;42.666;23.292;2023-02-28T01:57:34;94838.34;;;11.32;69.34
4469;BME280;2247;42.666;23.292;2023-02-28T02:00:06;94805.34;;;10.94;69.30
4469;BME280;2247;42.666;23.292;2023-02-28T02:02:36;94831.50;;;11.31;68.88
4469;BME280;2247;42.666;23.292;2023-02-28T02:05:07;94829.38;;;11.43;68.54
4469;BME280;2247;42.666;23.292;2023-02-28T02:07:37;94833.59;;;11.24;68.63
4469;BME280;2247;42.666;23.292;2023-02-28T02:10:11;94831.75;;;11.35;68.34
4469;BME280;2247;42.666;23.292;2023-02-28T02:13:00;94829.91;;;11.30;68.48
4469;BME280;2247;42.666;23.292;2023-02-28T02:15:33;94823.31;;;11.33;67.97
4469;BME280;2247;42.666;23.292;2023-02-28T02:18:07;94824.09;;;11.23;68.80
4469;BME280;2247;42.666;23.292;2023-02-28T02:21:10;94825.41;;;11.31;68.72
4469;BME280;2247;42.666;23.292;2023-02-28T02:24:14;94823.31;;;11.23;69.05
4469;BME280;2247;42.666;23.292;2023-02-28T02:26:58;94808.53;;;11.17;68.83
4469;BME280;2247;42.666;23.292;2023-02-28T02:32:47;94816.47;;;11.27;69.20
4469;BME280;2247;42.666;23.292;2023-02-28T02:35:21;94830.94;;;11.14;69.63
4469;BME280;2247;42.666;23.292;2023-02-28T02:37:55;94825.69;;;11.29;69.21
4469;BME280;2247;42.666;23.292;2023-02-28T02:40:30;94823.03;;;11.34;69.55
4469;BME280;2247;42.666;23.292;2023-02-28T02:43:02;94831.50;;;11.31;69.39
4469;BME280;2247;42.666;23.292;2023-02-28T02:45:36;94841.75;;;11.48;68.39
4469;BME280;2247;42.666;23.292;2023-02-28T02:48:07;94832.81;;;11.39;68.80
4469;BME280;2247;42.666;23.292;2023-02-28T02:50:38;94829.66;;;11.32;69.23
4469;BME280;2247;42.666;23.292;2023-02-28T02:53:08;94836.50;;;11.28;69.10
4469;BME280;2247;42.666;23.292;2023-02-28T02:55:41;94829.63;;;11.17;69.72
4469;BME280;2247;42.666;23.292;2023-02-28T02:58:13;94840.44;;;11.15;69.74
4469;BME280;2247;42.666;23.292;2023-02-28T03:00:45;94837.28;;;11.08;70.25
4469;BME280;2247;42.666;23.292;2023-02-28T03:03:14;94844.41;;;11.13;69.90
4469;BME280;2247;42.666;23.292;2023-02-28T03:05:49;94843.34;;;11.09;70.05
4469;BME280;2247;42.666;23.292;2023-02-28T03:08:16;94851.03;;;11.40;68.94
4469;BME280;2247;42.666;23.292;2023-02-28T03:10:45;94851.03;;;11.40;68.21
4469;BME280;2247;42.666;23.292;2023-02-28T03:13:22;94857.59;;;11.18;69.63
4469;BME280;2247;42.666;23.292;2023-02-28T03:16:00;94870.78;;;11.28;69.37
4469;BME280;2247;42.666;23.292;2023-02-28T03:18:41;94863.69;;;11.43;68.68
4469;BME280;2247;42.666;23.292;2023-02-28T03:21:22;94873.97;;;11.45;68.10
4469;BME280;2247;42.666;23.292;2023-02-28T03:23:56;94860.25;;;11.53;68.37
4469;BME280;2247;42.666;23.292;2023-02-28T03:26:27;94873.19;;;11.44;68.50
4469;BME280;2247;42.666;23.292;2023-02-28T03:29:02;94880.03;;;11.56;68.21
4469;BME280;2247;42.666;23.292;2023-02-28T03:31:33;94874.50;;;11.72;67.31
4469;BME280;2247;42.666;23.292;2023-02-28T03:34:06;94877.94;;;11.58;67.52
4469;BME280;2247;42.666;23.292;2023-02-28T03:36:38;94891.13;;;11.48;68.17
4469;BME280;2247;42.666;23.292;2023-02-28T03:39:14;94881.09;;;11.29;68.64
4469;BME280;2247;42.666;23.292;2023-02-28T03:41:44;94893.19;;;11.20;69.22
4469;BME280;2247;42.666;23.292;2023-02-28T03:44:18;94887.13;;;11.15;69.55
4469;BME280;2247;42.666;23.292;2023-02-28T03:46:53;94893.94;;;10.95;70.11
4469;BME280;2247;42.666;23.292;2023-02-28T03:49:27;94894.97;;;10.84;70.68
4469;BME280;2247;42.666;23.292;2023-02-28T03:52:00;94887.81;;;10.75;71.05
4469;BME280;2247;42.666;23.292;2023-02-28T03:54:31;94889.09;;;10.62;71.27
4469;BME280;2247;42.666;23.292;2023-02-28T03:57:03;94892.78;;;10.56;71.87
4469;BME280;2247;42.666;23.292;2023-02-28T03:59:34;94888.81;;;10.53;72.21
4469;BME280;2247;42.666;23.292;2023-02-28T04:02:04;94880.66;;;10.60;71.97
4469;BME280;2247;42.666;23.292;2023-02-28T04:04:31;94900.81;;;10.91;70.87
4469;BME280;2247;42.666;23.292;2023-02-28T04:07:04;94902.66;;;10.91;70.75
4469;BME280;2247;42.666;23.292;2023-02-28T04:09:31;94891.00;;;10.82;71.29
4469;BME280;2247;42.666;23.292;2023-02-28T04:11:58;94876.25;;;10.86;71.27
4469;BME280;2247;42.666;23.292;2023-02-28T04:14:26;94895.78;;;10.85;71.29
4469;BME280;2247;42.666;23.292;2023-02-28T04:16:52;94902.06;;;10.74;71.24
4469;BME280;2247;42.666;23.292;2023-02-28T04:19:19;94893.09;;;10.70;71.51
4469;BME280;2247;42.666;23.292;2023-02-28T04:21:47;94894.41;;;10.72;71.61
4469;BME280;2247;42.666;23.292;2023-02-28T04:24:18;94889.91;;;10.62;71.87
4469;BME280;2247;42.666;23.292;2023-02-28T04:26:47;94884.63;;;10.62;71.97
4469;BME280;2247;42.666;23.292;2023-02-28T04:29:19;94886.50;;;10.72;71.55
4469;BME280;2247;42.666;23.292;2023-02-28T04:31:46;94894.63;;;10.60;71.34
4469;BME280;2247;42.666;23.292;2023-02-28T04:34:14;94897.72;;;10.47;72.24
4469;BME280;2247;42.666;23.292;2023-02-28T04:36:42;94893.81;;;10.50;72.13
4469;BME280;2247;42.666;23.292;2023-02-28T04:39:09;94902.06;;;10.74;71.87
4469;BME280;2247;42.666;23.292;2023-02-28T04:41:38;94885.63;;;10.51;71.47
4469;BME280;2247;42.666;23.292;2023-02-28T04:44:05;94904.13;;;10.66;71.70
4469;BME280;2247;42.666;23.292;2023-02-28T04:46:32;94909.44;;;10.72;71.18
4469;BME280;2247;42.666;23.292;2023-02-28T04:48:59;94904.91;;;10.57;71.11
4469;BME280;2247;42.666;23.292;2023-02-28T04:51:26;94909.63;;;10.50;71.11
4469;BME280;2247;42.666;23.292;2023-02-28T04:53:53;94917.78;;;10.53;71.16
4469;BME280;2247;42.666;23.292;2023-02-28T04:56:20;94926.94;;;10.41;71.32
4469;BME280;2247;42.666;23.292;2023-02-28T04:58:49;94930.97;;;10.53;71.67
4469;BME280;2247;42.666;23.292;2023-02-28T05:01:22;94925.13;;;10.41;71.40
4469;BME280;2247;42.666;23.292;2023-02-28T05:03:50;94932.47;;;10.39;71.94
4469;BME280;2247;42.666;23.292;2023-02-28T05:06:18;94929.28;;;10.32;71.88
4469;BME280;2247;42.666;23.292;2023-02-28T05:08:48;94926.41;;;10.39;71.59
4469;BME280;2247;42.666;23.292;2023-02-28T05:11:32;94923.34;;;10.15;72.34
4469;BME280;2247;42.666;23.292;2023-02-28T05:16:44;94933.69;;;9.89;73.29
4469;BME280;2247;42.666;23.292;2023-02-28T05:19:11;94917.88;;;9.84;73.41
4469;BME280;2247;42.666;23.292;2023-02-28T05:21:40;94910.41;;;9.71;73.30
4469;BME280;2247;42.666;23.292;2023-02-28T05:24:10;94931.84;;;9.85;73.19
4469;BME280;2247;42.666;23.292;2023-02-28T05:26:49;94935.50;;;9.84;73.20
4469;BME280;2247;42.666;23.292;2023-02-28T05:29:20;94955.66;;;10.00;73.10
4469;BME280;2247;42.666;23.292;2023-02-28T05:31:50;94940.34;;;9.97;72.82
4469;BME280;2247;42.666;23.292;2023-02-28T05:34:19;94945.44;;;10.09;73.17
4469;BME280;2247;42.666;23.292;2023-02-28T05:36:48;94947.16;;;9.93;73.10
4469;BME280;2247;42.666;23.292;2023-02-28T05:39:18;94933.66;;;9.84;73.36
4469;BME280;2247;42.666;23.292;2023-02-28T05:41:53;94950.88;;;9.97;72.59
4469;BME280;2247;42.666;23.292;2023-02-28T05:44:21;94957.00;;;10.08;72.35
4469;BME280;2247;42.666;23.292;2023-02-28T05:46:51;94962.19;;;10.30;72.07
4469;BME280;2247;42.666;23.292;2023-02-28T05:49:18;94963.00;;;10.35;71.69
4469;BME280;2247;42.666;23.292;2023-02-28T05:51:45;94937.78;;;10.07;72.05
4469;BME280;2247;42.666;23.292;2023-02-28T05:54:14;94948.56;;;10.06;71.98
4469;BME280;2247;42.666;23.292;2023-02-28T05:56:41;94965.97;;;10.07;72.87
4469;BME280;2247;42.666;23.292;2023-02-28T05:59:09;94969.22;;;10.19;72.88
4469;BME280;2247;42.666;23.292;2023-02-28T06:01:38;94969.72;;;10.16;72.88
4469;BME280;2247;42.666;23.292;2023-02-28T06:04:09;94959.34;;;10.41;71.91
4469;BME280;2247;42.666;23.292;2023-02-28T06:06:36;94964.81;;;10.30;71.84
4469;BME280;2247;42.666;23.292;2023-02-28T06:09:05;94966.03;;;10.17;72.80
4469;BME280;2247;42.666;23.292;2023-02-28T06:11:32;94963.75;;;10.31;72.62
4469;BME280;2247;42.666;23.292;2023-02-28T06:13:59;94956.47;;;10.43;72.05
4469;BME280;2247;42.666;23.292;2023-02-28T06:16:27;94956.25;;;10.49;71.93
4469;BME280;2247;42.666;23.292;2023-02-28T06:18:56;94963.91;;;10.51;71.55
4469;BME280;2247;42.666;23.292;2023-02-28T06:21:25;94953.56;;;10.44;71.83
4469;BME280;2247;42.666;23.292;2023-02-28T06:23:52;94967.88;;;10.58;71.38
4469;BME280;2247;42.666;23.292;2023-02-28T06:26:19;94954.75;;;10.69;71.25
4469;BME280;2247;42.666;23.292;2023-02-28T06:28:47;94966.13;;;10.79;70.83
4469;BME280;2247;42.666;23.292;2023-02-28T06:31:15;94964.41;;;11.05;70.04
4469;BME280;2247;42.666;23.292;2023-02-28T06:33:43;94964.94;;;11.12;69.25
4469;BME280;2247;42.666;23.292;2023-02-28T06:36:11;94973.84;;;11.01;69.47
4469;BME280;2247;42.666;23.292;2023-02-28T06:38:40;94977.03;;;11.03;69.64
4469;BME280;2247;42.666;23.292;2023-02-28T06:41:08;94985.75;;;11.03;69.34
4469;BME280;2247;42.666;23.292;2023-02-28T06:43:39;94988.38;;;11.03;69.50
4469;BME280;2247;42.666;23.292;2023-02-28T06:46:09;94982.06;;;11.04;69.76
4469;BME280;2247;42.666;23.292;2023-02-28T06:48:39;94970.66;;;10.89;69.56
4469;BME280;2247;42.666;23.292;2023-02-28T06:51:08;94982.25;;;10.93;70.08
4469;BME280;2247;42.666;23.292;2023-02-28T06:53:35;94970.97;;;10.97;69.72
4469;BME280;2247;42.666;23.292;2023-02-28T06:56:05;94982.38;;;11.18;69.37
4469;BME280;2247;42.666;23.292;2023-02-28T06:58:34;94992.97;;;11.43;69.03
4469;BME280;2247;42.666;23.292;2023-02-28T07:01:02;94986.16;;;11.53;68.40
4469;BME280;2247;42.666;23.292;2023-02-28T07:03:29;94986.66;;;11.50;68.63
4469;BME280;2247;42.666;23.292;2023-02-28T07:05:56;94991.44;;;11.68;67.75
4469;BME280;2247;42.666;23.292;2023-02-28T07:08:23;94985.88;;;11.69;67.42
4469;BME280;2247;42.666;23.292;2023-02-28T07:10:52;94984.59;;;11.72;67.20
4469;BME280;2247;42.666;23.292;2023-02-28T07:13:23;94986.75;;;11.75;67.23
4469;BME280;2247;42.666;23.292;2023-02-28T07:15:54;94984.88;;;11.86;67.16
4469;BME280;2247;42.666;23.292;2023-02-28T07:18:22;94982.50;;;12.04;67.09
4469;BME280;2247;42.666;23.292;2023-02-28T07:20:49;94981.44;;;12.10;66.71
4469;BME280;2247;42.666;23.292;2023-02-28T07:23:16;94992.03;;;12.20;66.66
4469;BME280;2247;42.666;23.292;2023-02-28T07:25:43;94986.47;;;12.17;65.98
4469;BME280;2247;42.666;23.292;2023-02-28T07:28:11;94989.13;;;12.07;66.46
4469;BME280;2247;42.666;23.292;2023-02-28T07:30:41;94988.03;;;12.18;65.71
4469;BME280;2247;42.666;23.292;2023-02-28T07:33:08;94992.03;;;12.05;65.92
4469;BME280;2247;42.666;23.292;2023-02-28T07:35:35;94991.50;;;11.98;66.49
4469;BME280;2247;42.666;23.292;2023-02-28T07:38:02;94988.84;;;11.98;66.28
4469;BME280;2247;42.666;23.292;2023-02-28T07:40:30;94991.75;;;12.12;65.71
4469;BME280;2247;42.666;23.292;2023-02-28T07:42:59;94996.25;;;11.96;66.65
4469;BME280;2247;42.666;23.292;2023-02-28T07:45:26;94994.13;;;11.93;66.43
4469;BME280;2247;42.666;23.292;2023-02-28T07:47:55;94987.00;;;11.99;67.07
4469;BME280;2247;42.666;23.292;2023-02-28T07:50:23;94978.53;;;11.92;67.63
4469;BME280;2247;42.666;23.292;2023-02-28T07:52:50;94984.63;;;11.97;67.32
4469;BME280;2247;42.666;23.292;2023-02-28T07:55:17;94985.16;;;12.19;68.42
4469;BME280;2247;42.666;23.292;2023-02-28T07:57:44;94985.91;;;12.40;68.09
4469;BME280;2247;42.666;23.292;2023-02-28T08:00:12;94974.03;;;12.43;67.19
4469;BME280;2247;42.666;23.292;2023-02-28T08:02:39;94977.69;;;12.62;65.91
4469;BME280;2247;42.666;23.292;2023-02-28T08:05:10;94975.59;;;12.49;65.96
4469;BME280;2247;42.666;23.292;2023-02-28T08:07:37;94972.19;;;12.28;65.72
4469;BME280;2247;42.666;23.292;2023-02-28T08:10:06;94978.81;;;12.31;66.45
4469;BME280;2247;42.666;23.292;2023-02-28T08:12:35;94976.69;;;12.28;66.10
4469;BME280;2247;42.666;23.292;2023-02-28T08:15:02;94971.91;;;12.24;66.41
4469;BME280;2247;42.666;23.292;2023-02-28T08:17:29;94984.63;;;12.12;67.08
4469;BME280;2247;42.666;23.292;2023-02-28T08:19:56;94981.19;;;12.07;67.32
4469;BME280;2247;42.666;23.292;2023-02-28T08:22:24;94967.72;;;11.98;67.06
4469;BME280;2247;42.666;23.292;2023-02-28T08:24:51;94993.59;;;12.11;67.14
4469;BME280;2247;42.666;23.292;2023-02-28T08:27:19;94995.44;;;12.06;67.82
4469;BME280;2247;42.666;23.292;2023-02-28T08:29:46;94987.28;;;12.07;67.34
4469;BME280;2247;42.666;23.292;2023-02-28T08:32:13;94986.22;;;12.13;67.70
4469;BME280;2247;42.666;23.292;2023-02-28T08:34:42;94984.34;;;12.24;67.33
4469;BME280;2247;42.666;23.292;2023-02-28T08:37:10;94988.25;;;12.52;67.55
4469;BME280;2247;42.666;23.292;2023-02-28T08:39:39;94992.00;;;12.36;67.64
4469;BME280;2247;42.666;23.292;2023-02-28T08:42:05;94997.53;;;12.39;67.01
4469;BME280;2247;42.666;23.292;2023-02-28T08:44:33;95001.25;;;12.33;67.54
4469;BME280;2247;42.666;23.292;2023-02-28T08:46:59;94995.72;;;12.35;67.64
4469;BME280;2247;42.666;23.292;2023-02-28T08:49:26;94993.31;;;12.38;67.16
4469;BME280;2247;42.666;23.292;2023-02-28T08:51:53;95004.13;;;12.52;66.11
4469;BME280;2247;42.666;23.292;2023-02-28T08:54:21;94995.16;;;12.33;67.61
4469;BME280;2247;42.666;23.292;2023-02-28T08:56:49;94975.38;;;12.20;67.88
4469;BME280;2247;42.666;23.292;2023-02-28T08:59:16;95000.97;;;12.40;67.47
4469;BME280;2247;42.666;23.292;2023-02-28T09:01:43;95002.31;;;12.37;67.17
4469;BME280;2247;42.666;23.292;2023-02-28T09:04:10;94998.34;;;12.35;67.50
4469;BME280;2247;42.666;23.292;2023-02-28T09:06:37;94994.09;;;12.39;67.23
4469;BME280;2247;42.666;23.292;2023-02-28T09:09:04;94996.25;;;12.37;67.29
4469;BME280;2247;42.666;23.292;2023-02-28T09:11:33;94988.81;;;12.39;67.35
4469;BME280;2247;42.666;23.292;2023-02-28T09:14:02;94993.84;;;12.50;67.04
4469;BME280;2247;42.666;23.292;2023-02-28T09:16:31;94985.63;;;12.47;67.23
4469;BME280;2247;42.666;23.292;2023-02-28T09:18:58;94978.25;;;12.44;67.53
4469;BME280;2247;42.666;23.292;2023-02-28T09:21:25;94983.25;;;12.55;66.94
4469;BME280;2247;42.666;23.292;2023-02-28T09:23:52;94992.78;;;12.51;67.52
4469;BME280;2247;42.666;23.292;2023-02-28T09:26:22;94991.44;;;12.54;67.48
4469;BME280;2247;42.666;23.292;2023-02-28T09:28:50;94988.53;;;12.60;67.71
4469;BME280;2247;42.666;23.292;2023-02-28T09:31:22;94984.28;;;12.65;67.44
4469;BME280;2247;42.666;23.292;2023-02-28T09:33:49;94994.56;;;12.66;67.49
4469;BME280;2247;42.666;23.292;2023-02-28T09:36:17;94992.50;;;12.63;67.19
4469;BME280;2247;42.666;23.292;2023-02-28T09:38:45;94982.19;;;12.56;67.28
4469;BME280;2247;42.666;23.292;2023-02-28T09:41:14;94984.00;;;12.71;67.34
4469;BME280;2247;42.666;23.292;2023-02-28T09:43:44;94978.16;;;12.74;67.21
4469;BME280;2247;42.666;23.292;2023-02-28T09:46:27;94981.88;;;12.78;66.78
4469;BME280;2247;42.666;23.292;2023-02-28T09:48:55;94988.72;;;12.79;67.17
4469;BME280;2247;42.666;23.292;2023-02-28T09:51:45;94983.97;;;12.81;67.09
4469;BME280;2247;42.666;23.292;2023-02-28T09:54:17;94978.16;;;12.74;67.39
4469;BME280;2247;42.666;23.292;2023-02-28T09:56:49;94966.03;;;12.68;67.84
4469;BME280;2247;42.666;23.292;2023-02-28T09:59:29;94977.38;;;12.79;67.07
4469;BME280;2247;42.666;23.292;2023-02-28T10:02:07;94975.00;;;12.77;67.31
4469;BME280;2247;42.666;23.292;2023-02-28T10:04:43;94969.16;;;12.80;67.39
4469;BME280;2247;42.666;23.292;2023-02-28T10:07:29;94960.72;;;12.73;67.19
4469;BME280;2247;42.666;23.292;2023-02-28T10:10:06;94961.75;;;12.82;67.49
4469;BME280;2247;42.666;23.292;2023-02-28T10:12:41;94960.38;;;12.95;67.10
4469;BME280;2247;42.666;23.292;2023-02-28T10:15:13;94963.22;;;13.19;66.52
4469;BME280;2247;42.666;23.292;2023-02-28T10:17:44;94944.63;;;13.29;66.04
4469;BME280;2247;42.666;23.292;2023-02-28T10:20:19;94965.75;;;13.39;66.35
4469;BME280;2247;42.666;23.292;2023-02-28T10:22:53;94952.44;;;13.49;65.83
4469;BME280;2247;42.666;23.292;2023-02-28T10:25:23;94951.81;;;13.67;65.44
4469;BME280;2247;42.666;23.292;2023-02-28T10:27:52;94940.16;;;13.68;65.31
4469;BME280;2247;42.666;23.292;2023-02-28T10:30:21;94934.72;;;13.84;64.92
4469;BME280;2247;42.666;23.292;2023-02-28T10:32:53;94946.91;;;13.85;64.96
4469;BME280;2247;42.666;23.292;2023-02-28T10:35:21;94934.19;;;13.87;64.64
4469;BME280;2247;42.666;23.292;2023-02-28T10:37:50;94928.41;;;13.79;64.60
4469;BME280;2247;42.666;23.292;2023-02-28T10:40:31;94928.44;;;13.40;64.95
4469;BME280;2247;42.666;23.292;2023-02-28T10:43:02;94916.53;;;13.38;66.38
4469;BME280;2247;42.666;23.292;2023-02-28T10:45:30;94919.63;;;13.50;66.08
4469;BME280;2247;42.666;23.292;2023-02-28T10:48:02;94909.59;;;13.47;65.61
4469;BME280;2247;42.666;23.292;2023-02-28T10:50:37;94900.22;;;13.60;65.39
4469;BME280;2247;42.666;23.292;2023-02-28T10:53:17;94900.63;;;13.38;65.95
4469;BME280;2247;42.666;23.292;2023-02-28T10:55:57;94911.75;;;13.40;65.50
4469;BME280;2247;42.666;23.292;2023-02-28T10:58:26;94902.88;;;13.16;65.57
4469;BME280;2247;42.666;23.292;2023-02-28T11:00:54;94887.41;;;12.89;65.79
4469;BME280;2247;42.666;23.292;2023-02-28T11:03:30;94888.66;;;13.07;66.41
4469;BME280;2247;42.666;23.292;2023-02-28T11:06:03;94896.81;;;13.10;65.71
4469;BME280;2247;42.666;23.292;2023-02-28T11:08:30;94874.59;;;13.11;65.70
4469;BME280;2247;42.666;23.292;2023-02-28T11:10:59;94882.22;;;13.23;65.25
4469;BME280;2247;42.666;23.292;2023-02-28T11:13:29;94893.38;;;13.10;65.63
4469;BME280;2247;42.666;23.292;2023-02-28T11:16:02;94903.19;;;13.04;66.08
4469;BME280;2247;42.666;23.292;2023-02-28T11:18:41;94890.03;;;12.89;66.48
4469;BME280;2247;42.666;23.292;2023-02-28T11:21:09;94863.41;;;12.75;66.71
4469;BME280;2247;42.666;23.292;2023-02-28T11:23:42;94869.66;;;12.94;66.69
4469;BME280;2247;42.666;23.292;2023-02-28T11:26:09;94874.13;;;12.99;66.53
4469;BME280;2247;42.666;23.292;2023-02-28T11:28:38;94868.84;;;12.99;66.78
4469;BME280;2247;42.666;23.292;2023-02-28T11:31:15;94879.13;;;13.00;66.21
4469;BME280;2247;42.666;23.292;2023-02-28T11:33:47;94880.25;;;12.89;66.89
4469;BME280;2247;42.666;23.292;2023-02-28T11:36:19;94882.94;;;12.84;66.93
4469;BME280;2247;42.666;23.292;2023-02-28T11:38:47;94870.00;;;12.73;67.84
4469;BME280;2247;42.666;23.292;2023-02-28T11:41:32;94866.59;;;12.72;67.61
4469;BME280;2247;42.666;23.292;2023-02-28T11:44:12;94862.91;;;12.68;67.96
4469;BME280;2247;42.666;23.292;2023-02-28T11:46:47;94866.59;;;12.72;67.76
4469;BME280;2247;42.666;23.292;2023-02-28T11:49:30;94864.03;;;12.57;68.04
4469;BME280;2247;42.666;23.292;2023-02-28T11:52:02;94854.44;;;12.71;68.49
4469;BME280;2247;42.666;23.292;2023-02-28T11:54:55;94849.06;;;12.86;67.39
4469;BME280;2247;42.666;23.292;2023-02-28T11:57:35;94862.00;;;12.93;67.46
4469;BME280;2247;42.666;23.292;2023-02-28T12:00:14;94861.22;;;12.92;67.31
4469;BME280;2247;42.666;23.292;2023-02-28T12:02:59;94841.69;;;12.83;67.67
4469;BME280;2247;42.666;23.292;2023-02-28T12:05:35;94875.00;;;12.84;67.78
4469;BME280;2247;42.666;23.292;2023-02-28T12:08:16;94845.16;;;12.74;67.90
4469;BME280;2247;42.666;23.292;2023-02-28T12:10:57;94872.41;;;12.74;67.87
4469;BME280;2247;42.666;23.292;2023-02-28T12:13:34;94865.75;;;12.82;67.40
4469;BME280;2247;42.666;23.292;2023-02-28T12:16:23;94855.66;;;12.89;67.38
4469;BME280;2247;42.666;23.292;2023-02-28T12:19:04;94844.59;;;12.82;67.17
4469;BME280;2247;42.666;23.292;2023-02-28T12:21:57;94846.22;;;12.78;67.64
4469;BME280;2247;42.666;23.292;2023-02-28T12:24:48;94842.22;;;12.80;67.36
4469;BME280;2247;42.666;23.292;2023-02-28T12:27:21;94853.53;;;12.91;67.55
4469;BME280;2247;42.666;23.292;2023-02-28T12:29:54;94844.06;;;12.85;67.36
4469;BME280;2247;42.666;23.292;2023-02-28T12:32:26;94861.25;;;12.82;67.22
4469;BME280;2247;42.666;23.292;2023-02-28T12:35:01;94849.88;;;12.82;66.61
4469;BME280;2247;42.666;23.292;2023-02-28T12:37:36;94842.22;;;12.80;66.77
4469;BME280;2247;42.666;23.292;2023-02-28T12:40:09;94848.84;;;12.78;66.79
4469;BME280;2247;42.666;23.292;2023-02-28T12:42:40;94869.75;;;12.74;66.45
4469;BME280;2247;42.666;23.292;2023-02-28T12:45:15;94848.63;;;12.69;66.78
4469;BME280;2247;42.666;23.292;2023-02-28T12:47:46;94851.50;;;12.73;67.03
4469;BME280;2247;42.666;23.292;2023-02-28T12:50:15;94836.44;;;12.78;66.73
4469;BME280;2247;42.666;23.292;2023-02-28T12:52:50;94858.63;;;12.77;67.01
4469;BME280;2247;42.666;23.292;2023-02-28T12:55:25;94850.97;;;12.76;66.78
4469;BME280;2247;42.666;23.292;2023-02-28T12:58:00;94823.53;;;12.61;67.01
4469;BME280;2247;42.666;23.292;2023-02-28T13:00:33;94855.25;;;12.72;67.06
4469;BME280;2247;42.666;23.292;2023-02-28T13:08:59;94817.16;;;12.68;65.55
4469;BME280;2247;42.666;23.292;2023-02-28T13:11:29;94841.13;;;12.86;66.27
4469;BME280;2247;42.666;23.292;2023-02-28T13:13:59;94838.38;;;13.01;65.67
4469;BME280;2247;42.666;23.292;2023-02-28T13:16:27;94837.06;;;13.04;65.48
4469;BME280;2247;42.666;23.292;2023-02-28T13:19:09;94845.34;;;12.92;65.79
4469;BME280;2247;42.666;23.292;2023-02-28T13:21:44;94854.38;;;12.81;65.70
4469;BME280;2247;42.666;23.292;2023-02-28T13:24:40;94844.97;;;12.65;66.26
4469;BME280;2247;42.666;23.292;2023-02-28T13:27:32;94835.94;;;12.66;66.06
4469;BME280;2247;42.666;23.292;2023-02-28T13:29:59;94836.72;;;12.67;65.70
4469;BME280;2247;42.666;23.292;2023-02-28T13:32:36;94825.41;;;12.61;65.95
4469;BME280;2247;42.666;23.292;2023-02-28T13:35:42;94832.78;;;12.64;65.20
4469;BME280;2247;42.666;23.292;2023-02-28T13:38:32;94827.69;;;12.78;65.39
4469;BME280;2247;42.666;23.292;2023-02-28T13:44:08;94830.03;;;12.79;64.95
4469;BME280;2247;42.666;23.292;2023-02-28T13:49:27;94813.72;;;12.72;64.33
4469;BME280;2247;42.666;23.292;2023-02-28T13:52:09;94815.03;;;12.70;64.47